Time;durP1;ratioP1;P1;durP2;ratioP2;P2;SDS_P1;SDS_P2;PMS_P1;PMS_P2;Temp;Humidity;BMP_temperature;BMP_pressure;BME280_temperature;BME280_humidity;BME280_pressure;Samples;Min_cycle;Max_cycle;Signal;HPM_P1;HPM_P2
2021/08/22 00:05:49;;;;;;;9.70;6.90;;;19.10;99.90;;;;;;21013371;28;20037;-79
2021/08/22 00:15:49;;;;;;;15.67;11.13;;;19.20;99.90;;;;;;21010447;28;20056;-79
2021/08/22 00:25:50;;;;;;;29.83;13.20;;;19.20;99.90;;;;;;21010288;28;20043;-79
2021/08/22 00:35:51;;;;;;;16.83;12.53;;;19.10;99.90;;;;;;21010740;28;20039;-79
2021/08/22 00:45:52;;;;;;;20.23;11.20;;;19.20;99.90;;;;;;21008728;28;20122;-78
2021/08/22 00:55:54;;;;;;;16.17;9.90;;;19.10;99.90;;;;;;21013052;28;20028;-77
2021/08/22 01:06:00;;;;;;;13.00;9.00;;;19.10;99.90;;;;;;21057241;28;20036;-78
2021/08/22 01:16:04;;;;;;;14.13;9.27;;;19.10;99.90;;;;;;21009458;28;20062;-78
2021/08/22 01:26:06;;;;;;;12.77;8.32;;;19.00;99.90;;;;;;21003436;28;20466;-78
2021/08/22 01:36:12;;;;;;;12.18;7.85;;;18.90;99.90;;;;;;21002285;28;20368;-78
2021/08/22 01:46:14;;;;;;;13.05;7.03;;;19.00;99.90;;;;;;21001314;28;20394;-78
2021/08/22 01:56:14;;;;;;;;;;;18.90;99.90;;;;;;21001893;28;20432;-79
2021/08/22 02:06:31;;;;;;;13.83;7.47;;;18.80;99.90;;;;;;21003166;28;19916;-80
2021/08/22 02:16:33;;;;;;;10.52;6.82;;;18.70;99.90;;;;;;21002476;28;20052;-79
2021/08/22 02:26:35;;;;;;;13.88;6.82;;;18.50;99.90;;;;;;21002118;28;20028;-79
2021/08/22 02:36:36;;;;;;;12.18;6.28;;;18.50;99.90;;;;;;20981981;28;20036;-79
2021/08/22 02:46:37;;;;;;;12.23;7.47;;;18.50;99.90;;;;;;21014089;28;20086;-79
2021/08/22 02:56:37;;;;;;;15.60;6.97;;;18.40;99.90;;;;;;20999104;28;20032;-79
2021/08/22 03:06:38;;;;;;;11.17;7.33;;;18.50;99.90;;;;;;20999254;28;20036;-79
2021/08/22 03:16:39;;;;;;;13.27;8.40;;;18.20;99.90;;;;;;20980569;28;20039;-79
2021/08/22 03:26:40;;;;;;;12.20;8.33;;;18.00;99.90;;;;;;20994939;28;20036;-78
2021/08/22 03:36:41;;;;;;;11.40;6.90;;;17.90;99.90;;;;;;21013350;28;20079;-79
2021/08/22 03:46:42;;;;;;;9.37;5.60;;;17.60;99.90;;;;;;21021375;28;20031;-79
2021/08/22 03:56:43;;;;;;;10.03;5.67;;;17.70;99.90;;;;;;21049945;28;20078;-79
2021/08/22 04:06:50;;;;;;;10.27;5.07;;;17.70;99.90;;;;;;20992009;28;20466;-79
2021/08/22 04:16:51;;;;;;;10.15;4.82;;;17.70;99.90;;;;;;21011191;28;20029;-79
2021/08/22 04:26:52;;;;;;;9.57;4.70;;;17.50;99.90;;;;;;21083055;22;20302;-78
2021/08/22 04:36:52;;;;;;;6.87;4.27;;;17.30;99.90;;;;;;21091351;28;20070;-78
2021/08/22 04:46:53;;;;;;;8.40;5.40;;;17.30;99.90;;;;;;21060703;28;20100;-78
2021/08/22 04:56:54;;;;;;;11.47;6.00;;;17.40;99.90;;;;;;21109019;28;20034;-77
2021/08/22 05:06:55;;;;;;;8.83;5.83;;;17.30;99.90;;;;;;21150926;28;20435;-77
2021/08/22 05:16:56;;;;;;;10.43;5.80;;;17.30;99.90;;;;;;21164483;28;20028;-78
2021/08/22 05:26:57;;;;;;;10.57;5.63;;;17.60;99.90;;;;;;21186455;28;20032;-78
2021/08/22 05:36:58;;;;;;;12.63;5.83;;;17.60;99.90;;;;;;21179816;28;20023;-78
2021/08/22 05:46:58;;;;;;;8.40;4.60;;;17.80;99.90;;;;;;21175141;28;20028;-77
2021/08/22 05:56:59;;;;;;;8.57;5.47;;;17.80;99.90;;;;;;21134143;28;20059;-77
2021/08/22 06:07:00;;;;;;;6.73;4.67;;;18.10;99.90;;;;;;21164426;28;20080;-78
2021/08/22 06:17:01;;;;;;;10.83;4.67;;;18.30;99.90;;;;;;21164597;28;20433;-78
2021/08/22 06:27:01;;;;;;;9.87;4.80;;;18.40;99.90;;;;;;21146048;28;20067;-78
2021/08/22 06:37:02;;;;;;;7.83;4.90;;;18.70;99.90;;;;;;21165469;28;20089;-75
2021/08/22 06:47:03;;;;;;;6.63;4.27;;;19.00;99.90;;;;;;21120310;28;20084;-77
2021/08/22 06:57:05;;;;;;;8.73;5.30;;;19.40;99.90;;;;;;21087446;28;20067;-75
2021/08/22 07:07:05;;;;;;;7.97;5.18;;;19.40;99.90;;;;;;21088595;28;20032;-74
2021/08/22 07:17:06;;;;;;;14.90;6.17;;;19.30;99.90;;;;;;21105384;28;20022;-76
2021/08/22 07:27:07;;;;;;;11.03;5.20;;;19.20;99.90;;;;;;21096759;28;20039;-75
2021/08/22 07:37:08;;;;;;;8.77;5.63;;;19.20;99.90;;;;;;21091362;28;20028;-77
2021/08/22 07:47:09;;;;;;;9.83;6.40;;;19.00;99.90;;;;;;21114231;28;20414;-76
2021/08/22 07:57:10;;;;;;;12.00;6.97;;;19.00;99.90;;;;;;21168885;28;20370;-75
2021/08/22 08:07:10;;;;;;;12.90;6.90;;;19.20;99.90;;;;;;21137926;28;20437;-75
2021/08/22 08:17:11;;;;;;;14.00;6.57;;;19.10;99.90;;;;;;21096530;28;20025;-75
2021/08/22 08:27:12;;;;;;;;;;;19.40;99.90;;;;;;21082482;28;20032;-75
2021/08/22 08:37:13;;;;;;;8.27;4.80;;;19.40;99.90;;;;;;21079169;28;19919;-75
2021/08/22 08:47:16;;;;;;;8.53;4.70;;;19.70;99.90;;;;;;21082076;28;20028;-75
2021/08/22 08:57:17;;;;;;;7.32;4.47;;;19.80;99.90;;;;;;21068008;28;20042;-78
2021/08/22 09:07:46;;;;;;;5.87;4.37;;;20.10;99.90;;;;;;21067423;28;20490;-79
2021/08/22 09:18:25;;;;;;;7.32;4.47;;;20.60;99.90;;;;;;21076200;28;20036;-79
2021/08/22 09:28:44;;;;;;;4.63;3.50;;;21.10;99.90;;;;;;21052965;28;20470;-79
2021/08/22 09:39:22;;;;;;;4.47;3.20;;;21.20;99.90;;;;;;21076067;28;20085;-80
2021/08/22 09:49:38;;;;;;;6.55;4.13;;;20.80;99.90;;;;;;21057129;28;20047;-79
2021/08/22 10:00:03;;;;;;;6.57;4.20;;;20.20;99.90;;;;;;21082805;28;20035;-79
2021/08/22 10:10:27;;;;;;;6.03;4.25;;;19.80;99.90;;;;;;21076556;28;20039;-79
2021/08/22 10:20:44;;;;;;;8.88;4.75;;;19.50;99.90;;;;;;21041073;28;20036;-80
2021/08/22 10:30:45;;;;;;;10.73;5.50;;;20.20;99.90;;;;;;21079960;22;20052;-76
2021/08/22 10:40:46;;;;;;;7.17;3.83;;;20.20;99.90;;;;;;20969402;28;20043;-76
2021/08/22 10:50:59;;;;;;;6.68;3.17;;;21.20;99.90;;;;;;20986230;28;20036;-76
2021/08/22 11:01:18;;;;;;;5.70;2.70;;;21.20;99.90;;;;;;20984968;28;20043;-76
2021/08/22 11:11:19;;;;;;;5.40;2.80;;;21.50;99.90;;;;;;20984682;28;20040;-77
2021/08/22 11:21:29;;;;;;;6.07;3.30;;;21.50;99.90;;;;;;20984467;28;20496;-76
2021/08/22 11:31:31;;;;;;;3.25;1.63;;;21.60;99.90;;;;;;20981643;28;20047;-75
2021/08/22 11:41:32;;;;;;;4.72;2.13;;;22.40;99.90;;;;;;20982321;28;20021;-76
2021/08/22 11:51:33;;;;;;;6.20;2.40;;;22.40;99.90;;;;;;20981746;28;20043;-74
2021/08/22 12:01:34;;;;;;;3.78;2.30;;;22.10;99.90;;;;;;20980922;28;20127;-75
2021/08/22 12:11:35;;;;;;;4.00;2.23;;;21.90;99.90;;;;;;20981476;28;20123;-77
2021/08/22 12:21:35;;;;;;;4.67;2.77;;;23.10;99.90;;;;;;20979882;28;20895;-75
2021/08/22 12:31:38;;;;;;;3.90;2.30;;;22.30;99.90;;;;;;20978244;28;20036;-75
2021/08/22 12:41:48;;;;;;;5.63;2.95;;;22.30;99.90;;;;;;20959797;28;20040;-75
2021/08/22 12:51:53;;;;;;;5.55;2.92;;;22.50;99.90;;;;;;20976975;28;20036;-76
2021/08/22 13:01:54;;;;;;;3.83;2.33;;;22.10;99.90;;;;;;20995283;28;20028;-76
2021/08/22 13:11:55;;;;;;;4.68;2.97;;;22.20;99.90;;;;;;20975863;28;20032;-77
2021/08/22 13:21:56;;;;;;;3.63;2.37;;;22.20;99.90;;;;;;20974999;28;20445;-76
2021/08/22 13:31:56;;;;;;;6.00;2.80;;;22.20;99.90;;;;;;20988988;28;20043;-75
2021/08/22 13:41:57;;;;;;;3.77;2.57;;;22.30;99.90;;;;;;20961453;28;20081;-76
2021/08/22 13:51:58;;;;;;;4.63;2.90;;;23.50;99.90;;;;;;20990087;28;20033;-75
2021/08/22 14:01:59;;;;;;;4.37;2.87;;;23.30;99.90;;;;;;21001720;28;20044;-75
2021/08/22 14:12:01;;;;;;;4.63;2.97;;;22.50;99.90;;;;;;20982677;28;20755;-76
2021/08/22 14:22:05;;;;;;;3.77;2.20;;;23.30;99.90;;;;;;21017867;28;20097;-76
2021/08/22 14:32:13;;;;;;;4.30;2.92;;;23.00;99.90;;;;;;21007161;28;20287;-75
2021/08/22 14:42:14;;;;;;;4.57;3.08;;;21.90;99.90;;;;;;20992837;28;20060;-76
2021/08/22 14:52:15;;;;;;;7.18;3.20;;;21.60;99.90;;;;;;20978098;28;20041;-76
2021/08/22 15:02:16;;;;;;;4.20;2.90;;;21.20;99.90;;;;;;20969872;28;20062;-76
2021/08/22 15:12:17;;;;;;;4.70;2.60;;;21.40;99.90;;;;;;21013975;28;20101;-75
2021/08/22 15:22:18;;;;;;;5.53;2.37;;;21.20;99.90;;;;;;21064907;28;20047;-75
2021/08/22 15:32:20;;;;;;;2.70;1.77;;;21.10;99.90;;;;;;21029468;28;20974;-74
2021/08/22 15:42:22;;;;;;;2.67;1.67;;;20.60;99.90;;;;;;21022834;28;20050;-75
2021/08/22 15:52:22;;;;;;;3.58;1.83;;;20.50;99.90;;;;;;21013913;28;20024;-75
2021/08/22 16:02:23;;;;;;;6.63;1.83;;;20.30;99.90;;;;;;21016089;28;20040;-75
2021/08/22 16:12:24;;;;;;;3.30;1.97;;;20.00;99.90;;;;;;20972714;28;20055;-74
2021/08/22 16:22:25;;;;;;;3.70;2.17;;;19.70;99.90;;;;;;21017063;28;20032;-75
2021/08/22 16:42:35;;;;;;;5.32;2.47;;;19.30;99.90;;;;;;20852413;28;20143;-78
2021/08/22 16:52:36;;;;;;;5.80;2.88;;;19.10;99.90;;;;;;20826038;28;20049;-78
2021/08/22 17:02:37;;;;;;;6.30;2.47;;;19.00;99.90;;;;;;20833912;28;20033;-77
2021/08/22 17:12:38;;;;;;;6.27;2.60;;;18.80;99.90;;;;;;20841839;28;20033;-77
2021/08/22 17:22:40;;;;;;;7.53;2.70;;;18.70;99.90;;;;;;20873604;28;20030;-77
2021/08/22 17:32:41;;;;;;;5.95;3.40;;;18.30;99.90;;;;;;20873119;28;20118;-77
2021/08/22 17:42:42;;;;;;;6.83;3.90;;;18.10;99.90;;;;;;20867719;28;20033;-78
2021/08/22 17:52:43;;;;;;;7.67;3.43;;;17.70;99.90;;;;;;20842025;28;20314;-76
2021/08/22 18:02:44;;;;;;;9.40;4.13;;;17.40;99.90;;;;;;20835209;28;20033;-77
2021/08/22 18:12:44;;;;;;;6.90;3.30;;;17.30;99.90;;;;;;20846589;28;20136;-78
2021/08/22 18:22:45;;;;;;;6.53;3.60;;;17.10;99.90;;;;;;20855293;28;20037;-78
2021/08/22 18:32:46;;;;;;;7.40;2.87;;;17.00;99.90;;;;;;20853874;28;20025;-77
2021/08/22 18:42:50;;;;;;;13.47;4.00;;;17.00;99.90;;;;;;20844223;28;20434;-78
2021/08/22 18:52:51;;;;;;;6.10;3.20;;;17.00;99.90;;;;;;20851952;28;20041;-77
2021/08/22 19:02:52;;;;;;;7.10;3.20;;;16.90;99.90;;;;;;20841561;28;20120;-78
2021/08/22 19:12:53;;;;;;;6.83;2.90;;;17.00;99.90;;;;;;20851820;28;20117;-77
2021/08/22 19:22:53;;;;;;;6.67;3.60;;;17.10;99.90;;;;;;20914725;28;20039;-77
2021/08/22 19:32:55;;;;;;;4.87;3.33;;;17.10;99.90;;;;;;20913538;28;20024;-78
2021/08/22 19:42:55;;;;;;;21.63;3.30;;;17.10;99.90;;;;;;20909909;28;20029;-78
2021/08/22 19:52:56;;;;;;;5.63;2.73;;;17.10;99.90;;;;;;20833310;28;20323;-78
2021/08/22 20:02:59;;;;;;;5.83;2.50;;;17.10;99.90;;;;;;20862622;28;20064;-78
2021/08/22 20:13:00;;;;;;;4.15;2.50;;;17.10;99.90;;;;;;20852248;28;20693;-77
2021/08/22 20:23:01;;;;;;;8.97;2.80;;;17.00;99.90;;;;;;20854064;28;20056;-78
2021/08/22 20:33:02;;;;;;;9.23;2.80;;;17.00;99.90;;;;;;20844800;28;20026;-78
2021/08/22 20:43:03;;;;;;;8.80;2.80;;;16.90;99.90;;;;;;20843311;28;20093;-78
2021/08/22 20:53:04;;;;;;;4.60;2.53;;;16.80;99.90;;;;;;20843145;28;20045;-79
2021/08/22 21:03:05;;;;;;;5.80;2.73;;;16.70;99.90;;;;;;20853005;28;20044;-77
2021/08/22 21:13:06;;;;;;;5.47;2.50;;;16.60;99.90;;;;;;20858347;28;20373;-78
2021/08/22 21:23:07;;;;;;;7.30;3.00;;;16.50;99.90;;;;;;20863046;28;20033;-78
2021/08/22 21:33:08;;;;;;;8.83;2.73;;;16.30;99.90;;;;;;20842455;28;20044;-77
2021/08/22 21:43:08;;;;;;;8.23;3.53;;;16.10;99.90;;;;;;20846460;28;20055;-78
2021/08/22 21:53:10;;;;;;;7.93;3.10;;;16.10;99.90;;;;;;20818749;28;20041;-78
2021/08/22 22:03:10;;;;;;;11.90;3.20;;;16.00;99.90;;;;;;20834886;28;20057;-78
2021/08/22 22:13:11;;;;;;;6.70;2.87;;;16.10;99.90;;;;;;20855247;28;21059;-79
2021/08/22 22:23:12;;;;;;;9.60;3.03;;;15.70;99.90;;;;;;20862588;28;20057;-77
2021/08/22 22:33:13;;;;;;;5.33;3.10;;;15.60;99.90;;;;;;20898371;22;20055;-79
2021/08/22 22:43:14;;;;;;;5.90;3.20;;;15.70;99.90;;;;;;20877047;28;20067;-78
2021/08/22 22:53:15;;;;;;;5.33;2.53;;;15.50;99.90;;;;;;20898214;28;20096;-80
2021/08/22 23:03:15;;;;;;;10.77;3.37;;;15.60;99.90;;;;;;20916045;28;20514;-79
2021/08/22 23:13:16;;;;;;;6.23;3.43;;;15.40;99.90;;;;;;20886446;28;20060;-80
2021/08/22 23:23:18;;;;;;;7.80;3.00;;;15.40;99.90;;;;;;20894603;28;20029;-79
2021/08/22 23:33:19;;;;;;;;;;;15.40;99.90;;;;;;20900450;28;20040;-80
2021/08/22 23:43:19;;;;;;;7.40;3.37;;;15.30;99.90;;;;;;20891635;28;20394;-79
2021/08/22 23:53:21;;;;;;;7.60;3.43;;;14.80;99.90;;;;;;20886981;28;20030;-79
